createdAt,value
2022-07-28T00:02:25.562Z,5.40
2022-07-28T00:04:52.242Z,5.20
2022-07-28T00:07:19.136Z,4.30
2022-07-28T00:09:45.840Z,4.60
2022-07-28T00:12:12.533Z,4.30
2022-07-28T00:14:39.126Z,6.00
2022-07-28T00:17:05.729Z,6.10
2022-07-28T00:19:32.351Z,6.00
2022-07-28T00:21:59.187Z,6.00
2022-07-28T00:24:25.833Z,5.90
2022-07-28T00:26:52.397Z,6.00
2022-07-28T00:29:19.077Z,6.00
2022-07-28T00:31:45.746Z,6.00
2022-07-28T00:34:12.698Z,6.60
2022-07-28T00:36:39.561Z,7.80
2022-07-28T00:39:06.276Z,7.80
2022-07-28T00:41:32.902Z,7.30
2022-07-28T00:43:59.515Z,8.60
2022-07-28T00:46:26.205Z,8.00
2022-07-28T00:48:54.342Z,9.10
2022-07-28T00:51:21.831Z,9.50
2022-07-28T00:53:48.421Z,10.10
2022-07-28T00:56:15.591Z,10.60
2022-07-28T00:58:42.503Z,9.40
2022-07-28T01:01:10.503Z,10.60
2022-07-28T01:03:41.002Z,10.70
2022-07-28T01:06:11.153Z,10.30
2022-07-28T01:08:58.010Z,10.70
2022-07-28T01:11:32.463Z,10.70
2022-07-28T01:14:16.143Z,10.70
2022-07-28T01:17:03.371Z,10.70
2022-07-28T01:19:35.673Z,10.70
2022-07-28T01:22:03.264Z,10.70
2022-07-28T01:24:45.095Z,10.70
2022-07-28T01:27:24.106Z,11.30
2022-07-28T01:29:56.770Z,10.70
2022-07-28T01:32:25.832Z,10.90
2022-07-28T01:34:56.515Z,11.50
2022-07-28T01:37:28.356Z,11.80
2022-07-28T01:39:57.330Z,13.90
2022-07-28T01:42:26.367Z,14.50
2022-07-28T01:44:54.088Z,13.70
2022-07-28T01:47:21.826Z,12.50
2022-07-28T01:49:49.851Z,12.60
2022-07-28T01:52:17.055Z,13.40
2022-07-28T01:54:45.520Z,13.00
2022-07-28T01:57:14.641Z,12.70
2022-07-28T01:59:41.727Z,12.80
2022-07-28T02:02:10.106Z,13.30
2022-07-28T02:04:38.692Z,13.50
2022-07-28T02:07:06.547Z,13.50
2022-07-28T02:09:34.485Z,13.90
2022-07-28T02:12:01.820Z,14.80
2022-07-28T02:14:29.600Z,14.60
2022-07-28T02:16:57.747Z,15.40
2022-07-28T02:19:26.201Z,15.40
2022-07-28T02:21:54.196Z,15.30
2022-07-28T02:24:23.033Z,14.10
2022-07-28T02:26:53.524Z,15.30
2022-07-28T02:29:49.350Z,15.40
2022-07-28T02:32:27.328Z,15.20
2022-07-28T02:34:59.973Z,15.20
2022-07-28T02:37:26.844Z,15.20
2022-07-28T02:39:59.864Z,15.20
2022-07-28T02:42:28.388Z,15.20
2022-07-28T02:44:56.968Z,15.10
2022-07-28T02:47:25.299Z,15.60
2022-07-28T02:49:52.333Z,15.50
2022-07-28T02:52:19.275Z,15.70
2022-07-28T02:54:46.563Z,15.10
2022-07-28T02:57:14.406Z,15.50
2022-07-28T02:59:41.251Z,17.10
2022-07-28T03:02:08.968Z,15.10
2022-07-28T03:04:54.717Z,16.10
2022-07-28T03:07:21.334Z,16.40
2022-07-28T03:09:48.343Z,15.00
2022-07-28T03:12:15.160Z,15.00
2022-07-28T03:14:42.042Z,15.60
2022-07-28T03:17:09.015Z,15.70
2022-07-28T03:19:36.108Z,15.40
2022-07-28T03:22:02.706Z,15.00
2022-07-28T03:24:30.863Z,16.80
2022-07-28T03:26:57.458Z,15.90
2022-07-28T03:29:24.501Z,15.80
2022-07-28T03:31:54.223Z,16.40
2022-07-28T03:34:21.042Z,16.10
2022-07-28T03:36:50.019Z,16.40
2022-07-28T03:39:17.764Z,15.40
2022-07-28T03:41:45.309Z,15.60
2022-07-28T03:44:13.705Z,15.40
2022-07-28T03:46:46.089Z,14.90
2022-07-28T03:49:12.839Z,15.40
2022-07-28T03:51:39.493Z,15.00
2022-07-28T03:54:06.129Z,15.10
2022-07-28T03:56:32.739Z,15.70
2022-07-28T03:58:59.321Z,15.50
2022-07-28T04:01:26.042Z,15.10
2022-07-28T04:03:52.677Z,16.30
2022-07-28T04:06:19.362Z,14.90
2022-07-28T04:08:46.491Z,15.90
2022-07-28T04:11:13.087Z,16.20
2022-07-28T04:13:39.705Z,17.20
2022-07-28T04:16:07.085Z,17.10
2022-07-28T04:18:34.364Z,16.50
2022-07-28T04:21:00.946Z,16.70
2022-07-28T04:23:28.110Z,16.40
2022-07-28T04:25:55.292Z,16.20
2022-07-28T04:28:22.006Z,14.90
2022-07-28T04:30:48.692Z,15.00
2022-07-28T04:33:15.371Z,15.00
2022-07-28T04:35:42.010Z,15.00
2022-07-28T04:38:08.662Z,15.10
2022-07-28T04:40:35.295Z,15.10
2022-07-28T04:43:03.652Z,14.10
2022-07-28T04:45:30.299Z,14.80
2022-07-28T04:47:56.899Z,13.10
2022-07-28T04:50:23.709Z,12.60
2022-07-28T04:52:50.329Z,13.20
2022-07-28T04:55:17.406Z,11.40
2022-07-28T04:57:44.143Z,10.80
2022-07-28T05:00:14.362Z,11.20
2022-07-28T05:02:41.825Z,10.80
2022-07-28T05:05:09.216Z,10.80
2022-07-28T05:07:36.342Z,9.80
2022-07-28T05:10:03.372Z,9.70
2022-07-28T05:12:30.142Z,9.70
2022-07-28T05:14:56.721Z,8.90
2022-07-28T05:17:23.357Z,8.80
2022-07-28T05:19:50.054Z,8.60
2022-07-28T05:22:17.351Z,6.20
2022-07-28T05:24:43.982Z,6.30
2022-07-28T05:27:12.165Z,6.30
2022-07-28T05:29:47.252Z,6.40
2022-07-28T05:32:16.635Z,5.20
2022-07-28T05:34:45.167Z,4.40
2022-07-28T05:37:12.153Z,2.50
2022-07-28T05:39:38.862Z,2.60
2022-07-28T05:42:06.284Z,2.80
2022-07-28T05:44:37.881Z,1.30
2022-07-28T05:47:05.433Z,1.00
2022-07-28T05:49:32.039Z,1.00
2022-07-28T05:51:58.591Z,1.10
2022-07-28T05:54:25.247Z,1.00
2022-07-28T05:56:52.646Z,1.00
2022-07-28T05:59:19.251Z,1.00
2022-07-28T06:01:46.026Z,1.00
2022-07-28T06:04:29.004Z,1.00
2022-07-28T06:06:56.097Z,1.00
2022-07-28T06:09:22.684Z,1.00
2022-07-28T06:11:50.835Z,1.00
2022-07-28T06:14:18.453Z,1.00
2022-07-28T06:16:45.596Z,1.00
2022-07-28T06:19:12.252Z,1.00
2022-07-28T06:21:38.925Z,1.00
2022-07-28T06:24:08.300Z,1.00
2022-07-28T06:26:43.654Z,1.00
2022-07-28T06:29:11.158Z,1.00
2022-07-28T06:31:37.763Z,1.00
2022-07-28T06:34:04.546Z,1.00
2022-07-28T06:36:31.377Z,1.00
2022-07-28T06:38:58.008Z,1.00
2022-07-28T06:41:24.577Z,1.00
2022-07-28T06:43:52.256Z,1.00
2022-07-28T06:46:19.674Z,1.00
2022-07-28T06:48:46.573Z,1.00
2022-07-28T06:51:14.982Z,1.00
2022-07-28T06:53:41.631Z,1.00
2022-07-28T06:56:13.887Z,1.00
2022-07-28T06:58:46.851Z,1.00
2022-07-28T07:01:17.243Z,1.00
2022-07-28T07:03:44.087Z,1.00
2022-07-28T07:06:11.112Z,1.00
2022-07-28T07:08:38.033Z,1.00
2022-07-28T07:11:04.665Z,1.00
2022-07-28T07:13:32.212Z,1.00
2022-07-28T07:15:58.913Z,1.00
2022-07-28T07:18:25.910Z,1.00
2022-07-28T07:20:54.473Z,1.00
2022-07-28T07:23:21.161Z,1.00
2022-07-28T07:25:47.775Z,1.00
2022-07-28T07:28:14.429Z,1.00
2022-07-28T07:30:41.032Z,1.00
2022-07-28T07:33:09.728Z,1.00
2022-07-28T07:35:37.902Z,1.00
2022-07-28T07:38:04.817Z,1.00
2022-07-28T07:40:31.911Z,1.00
2022-07-28T07:42:58.495Z,1.00
2022-07-28T07:45:25.062Z,1.00
2022-07-28T07:47:51.676Z,1.00
2022-07-28T07:50:18.240Z,1.00
2022-07-28T07:52:44.990Z,1.00
2022-07-28T07:55:11.624Z,1.00
2022-07-28T07:57:38.209Z,1.00
2022-07-28T08:00:05.410Z,1.00
2022-07-28T08:02:32.004Z,1.00
2022-07-28T08:04:58.900Z,1.00
2022-07-28T08:07:25.541Z,1.00
2022-07-28T08:09:52.509Z,1.00
2022-07-28T08:12:24.727Z,1.00
2022-07-28T08:14:52.500Z,1.00
2022-07-28T08:17:22.260Z,1.00
2022-07-28T08:19:52.193Z,1.00
2022-07-28T08:22:18.884Z,1.00
2022-07-28T08:24:45.611Z,1.00
2022-07-28T08:27:12.248Z,1.00
2022-07-28T08:29:38.835Z,1.00
2022-07-28T08:32:05.668Z,1.00
2022-07-28T08:34:33.743Z,1.00
2022-07-28T08:37:01.411Z,1.00
2022-07-28T08:39:28.011Z,1.00
2022-07-28T08:42:13.596Z,1.00
2022-07-28T08:44:49.170Z,1.00
2022-07-28T08:47:15.886Z,1.00
2022-07-28T08:49:44.720Z,1.00
2022-07-28T08:52:12.569Z,1.00
2022-07-28T08:54:43.500Z,1.00
2022-07-28T08:57:12.686Z,1.00
2022-07-28T08:59:39.341Z,1.00
2022-07-28T09:02:07.628Z,1.00
2022-07-28T09:04:37.087Z,1.00
2022-07-28T09:07:04.249Z,1.00
2022-07-28T09:09:31.414Z,1.00
2022-07-28T09:11:58.182Z,1.00
2022-07-28T09:14:25.412Z,1.00
2022-07-28T09:16:52.642Z,1.00
2022-07-28T09:19:19.251Z,1.00
2022-07-28T09:21:45.893Z,1.00
2022-07-28T09:24:31.516Z,1.00
2022-07-28T09:26:59.959Z,1.00
2022-07-28T09:29:26.573Z,1.00
2022-07-28T09:31:57.514Z,1.00
2022-07-28T09:34:24.221Z,1.00
2022-07-28T09:36:51.106Z,1.00
2022-07-28T09:39:33.724Z,1.00
2022-07-28T09:42:00.670Z,1.00
2022-07-28T09:44:27.774Z,1.00
2022-07-28T09:46:55.696Z,1.00
2022-07-28T09:49:28.112Z,1.00
2022-07-28T09:52:02.213Z,1.00
2022-07-28T09:54:28.810Z,1.00
2022-07-28T09:56:55.413Z,1.00
2022-07-28T09:59:23.707Z,1.00
2022-07-28T10:01:54.199Z,1.00
2022-07-28T10:04:30.641Z,1.00
2022-07-28T10:07:07.424Z,1.00
2022-07-28T10:09:34.290Z,1.00
2022-07-28T10:12:20.300Z,1.00
2022-07-28T10:14:47.752Z,1.00
2022-07-28T10:17:26.652Z,1.00
2022-07-28T10:19:54.978Z,1.00
2022-07-28T10:22:22.447Z,1.00
2022-07-28T10:24:52.763Z,1.00
2022-07-28T10:27:20.300Z,1.00
2022-07-28T10:29:53.315Z,1.00
2022-07-28T10:32:20.218Z,1.00
2022-07-28T10:34:50.414Z,1.00
2022-07-28T10:37:23.762Z,1.00
2022-07-28T10:40:10.884Z,1.00
2022-07-28T10:42:38.917Z,1.00
2022-07-28T10:45:05.872Z,1.00
2022-07-28T10:47:35.812Z,1.00
2022-07-28T10:50:04.002Z,1.00
2022-07-28T10:52:46.802Z,1.00
2022-07-28T10:55:23.135Z,1.00
2022-07-28T10:58:01.954Z,1.00
2022-07-28T11:00:52.864Z,1.00
2022-07-28T11:03:35.152Z,1.00
2022-07-28T11:06:20.482Z,1.00
2022-07-28T11:08:47.679Z,1.00
2022-07-28T11:11:14.497Z,1.00
2022-07-28T11:13:41.517Z,1.00
2022-07-28T11:16:14.271Z,1.00
2022-07-28T11:18:59.528Z,1.00
2022-07-28T11:21:27.683Z,1.00
2022-07-28T11:23:58.103Z,1.00
2022-07-28T11:26:24.658Z,1.00
2022-07-28T11:28:57.146Z,1.00
2022-07-28T11:31:42.330Z,1.00
2022-07-28T11:34:08.974Z,1.00
2022-07-28T11:36:54.602Z,1.00
2022-07-28T11:39:22.329Z,1.00
2022-07-28T11:41:49.277Z,1.00
2022-07-28T11:44:32.017Z,1.00
2022-07-28T11:47:17.452Z,1.00
2022-07-28T11:49:44.793Z,1.00
2022-07-28T11:52:12.673Z,1.00
2022-07-28T11:54:41.594Z,1.00
2022-07-28T11:57:09.894Z,1.00
2022-07-28T11:59:43.895Z,1.00
2022-07-28T12:02:25.192Z,1.00
2022-07-28T12:04:59.939Z,1.00
2022-07-28T12:07:27.826Z,1.00
2022-07-28T12:09:57.470Z,1.00
2022-07-28T12:12:24.257Z,1.00
2022-07-28T12:14:50.874Z,1.00
2022-07-28T12:17:17.511Z,1.00
2022-07-28T12:19:44.695Z,1.00
2022-07-28T12:22:15.774Z,1.00
2022-07-28T12:24:45.024Z,1.00
2022-07-28T12:27:13.707Z,1.00
2022-07-28T12:29:43.631Z,1.00
2022-07-28T12:32:10.645Z,1.00
2022-07-28T12:34:40.171Z,1.00
2022-07-28T12:37:09.801Z,1.00
2022-07-28T12:39:39.373Z,1.00
2022-07-28T12:42:06.871Z,1.00
2022-07-28T12:44:35.175Z,1.00
2022-07-28T12:47:02.058Z,1.00
2022-07-28T12:49:28.752Z,1.00
2022-07-28T12:51:55.343Z,1.00
2022-07-28T12:54:33.931Z,1.00
2022-07-28T12:57:00.542Z,1.00
2022-07-28T12:59:31.951Z,1.00
2022-07-28T13:01:58.713Z,1.00
2022-07-28T13:04:43.934Z,1.00
2022-07-28T13:07:11.803Z,1.00
2022-07-28T13:09:41.723Z,1.00
2022-07-28T13:12:15.451Z,1.00
2022-07-28T13:14:43.607Z,1.00
2022-07-28T13:17:10.806Z,1.00
2022-07-28T13:19:37.540Z,1.00
2022-07-28T13:22:08.563Z,1.00
2022-07-28T13:24:35.775Z,1.00
2022-07-28T13:27:03.118Z,1.00
2022-07-28T13:29:33.021Z,1.00
2022-07-28T13:31:59.825Z,1.00
2022-07-28T13:34:26.453Z,1.00
2022-07-28T13:36:53.082Z,1.00
2022-07-28T13:39:19.729Z,1.00
2022-07-28T13:41:57.098Z,1.00
2022-07-28T13:44:26.210Z,1.00
2022-07-28T13:46:53.221Z,1.00
2022-07-28T13:49:22.800Z,1.00
2022-07-28T13:51:51.022Z,1.00
2022-07-28T13:54:18.874Z,1.00
2022-07-28T13:56:46.135Z,1.00
2022-07-28T13:59:13.705Z,1.00
2022-07-28T14:01:41.366Z,1.00
2022-07-28T14:04:15.058Z,1.00
2022-07-28T14:06:44.995Z,1.00
2022-07-28T14:09:12.114Z,1.00
2022-07-28T14:11:41.250Z,1.00
2022-07-28T14:14:17.099Z,1.00
2022-07-28T14:16:47.861Z,1.00
2022-07-28T14:19:16.456Z,1.00
2022-07-28T14:21:50.233Z,1.00
2022-07-28T14:24:17.437Z,1.00
2022-07-28T14:26:44.419Z,1.00
2022-07-28T14:29:11.651Z,1.00
2022-07-28T14:31:38.619Z,1.00
2022-07-28T14:34:05.250Z,1.00
2022-07-28T14:36:31.855Z,1.00
2022-07-28T14:38:58.567Z,1.00
2022-07-28T14:41:25.920Z,1.00
2022-07-28T14:43:52.854Z,1.00
2022-07-28T14:46:21.707Z,1.00
2022-07-28T14:48:48.863Z,1.00
2022-07-28T14:51:15.615Z,1.00
2022-07-28T14:53:49.849Z,1.00
2022-07-28T14:56:18.628Z,1.00
2022-07-28T14:58:45.216Z,1.00
2022-07-28T15:01:11.842Z,1.00
2022-07-28T15:03:38.448Z,1.00
2022-07-28T15:06:10.289Z,1.00
2022-07-28T15:08:36.867Z,1.00
2022-07-28T15:11:03.435Z,1.00
2022-07-28T15:13:30.177Z,1.00
2022-07-28T15:15:57.027Z,1.00
2022-07-28T15:18:24.572Z,1.00
2022-07-28T15:20:51.219Z,1.00
2022-07-28T15:23:17.924Z,1.00
2022-07-28T15:25:46.439Z,1.00
2022-07-28T15:28:17.890Z,1.00
2022-07-28T15:30:51.340Z,1.00
2022-07-28T15:33:20.523Z,1.00
2022-07-28T15:35:58.209Z,1.00
2022-07-28T15:38:25.807Z,1.00
2022-07-28T15:40:52.928Z,1.00
2022-07-28T15:43:19.659Z,1.00
2022-07-28T15:45:50.920Z,1.00
2022-07-28T15:48:17.483Z,1.00
2022-07-28T15:50:48.316Z,1.00
2022-07-28T15:53:15.521Z,1.00
2022-07-28T15:55:43.508Z,1.00
2022-07-28T15:58:11.815Z,1.00
2022-07-28T16:00:38.387Z,1.00
2022-07-28T16:03:06.852Z,1.00
2022-07-28T16:05:33.611Z,1.00
2022-07-28T16:08:00.334Z,1.00
2022-07-28T16:10:27.472Z,1.00
2022-07-28T16:12:55.979Z,1.00
2022-07-28T16:15:24.898Z,1.00
2022-07-28T16:17:51.503Z,1.00
2022-07-28T16:20:18.085Z,1.00
2022-07-28T16:22:44.765Z,1.00
2022-07-28T16:25:16.430Z,1.00
2022-07-28T16:27:43.803Z,1.00
2022-07-28T16:30:13.612Z,1.00
2022-07-28T16:32:40.342Z,1.00
2022-07-28T16:35:07.858Z,1.00
2022-07-28T16:37:35.458Z,1.00
2022-07-28T16:40:03.484Z,1.00
2022-07-28T16:42:30.394Z,1.00
2022-07-28T16:44:57.249Z,1.00
2022-07-28T16:47:23.855Z,1.00
2022-07-28T16:49:50.534Z,1.00
2022-07-28T16:52:17.154Z,1.00
2022-07-28T16:54:43.761Z,1.00
2022-07-28T16:57:10.333Z,1.00
2022-07-28T16:59:37.981Z,1.00
2022-07-28T17:02:15.957Z,1.00
2022-07-28T17:04:42.587Z,1.00
2022-07-28T17:07:09.198Z,1.00
2022-07-28T17:09:35.766Z,1.00
2022-07-28T17:12:02.336Z,1.00
2022-07-28T17:14:28.933Z,1.00
2022-07-28T17:16:55.568Z,1.00
2022-07-28T17:19:22.246Z,1.00
2022-07-28T17:21:48.966Z,1.00
2022-07-28T17:24:16.022Z,1.00
2022-07-28T17:27:35.289Z,1.00
2022-07-28T17:29:29.430Z,1.00
2022-07-28T17:31:56.121Z,1.00
2022-07-28T17:34:23.843Z,1.00
2022-07-28T17:36:50.801Z,1.00
2022-07-28T17:39:17.464Z,1.00
2022-07-28T17:41:44.014Z,1.00
2022-07-28T17:44:10.655Z,1.00
2022-07-28T17:46:37.889Z,1.00
2022-07-28T17:49:05.714Z,1.00
2022-07-28T17:51:32.551Z,1.00
2022-07-28T17:53:59.298Z,1.00
2022-07-28T17:56:26.438Z,1.00
2022-07-28T17:58:53.426Z,1.00
2022-07-28T18:01:20.150Z,1.00
2022-07-28T18:03:57.097Z,1.00
2022-07-28T18:06:30.414Z,1.00
2022-07-28T18:08:57.571Z,1.00
2022-07-28T18:11:29.976Z,1.00
2022-07-28T18:14:04.953Z,1.00
2022-07-28T18:16:35.134Z,1.00
2022-07-28T18:19:04.896Z,1.00
2022-07-28T18:21:31.562Z,1.00
2022-07-28T18:24:01.651Z,1.00
2022-07-28T18:26:28.283Z,1.00
2022-07-28T18:28:54.899Z,1.00
2022-07-28T18:31:21.806Z,1.00
2022-07-28T18:33:48.584Z,1.00
2022-07-28T18:36:15.388Z,1.00
2022-07-28T18:38:42.056Z,1.00
2022-07-28T18:41:08.654Z,1.00
2022-07-28T18:43:35.333Z,1.00
2022-07-28T18:46:04.086Z,1.00
2022-07-28T18:48:30.901Z,1.00
2022-07-28T18:50:58.529Z,1.00
2022-07-28T18:53:26.577Z,1.00
2022-07-28T18:55:53.168Z,1.00
2022-07-28T18:58:19.756Z,1.00
2022-07-28T19:00:46.447Z,1.00
2022-07-28T19:03:13.088Z,1.00
2022-07-28T19:05:44.073Z,1.00
2022-07-28T19:08:12.598Z,1.00
2022-07-28T19:10:39.224Z,1.00
2022-07-28T19:13:12.897Z,1.00
2022-07-28T19:15:40.428Z,1.00
2022-07-28T19:18:09.821Z,1.00
2022-07-28T19:20:39.041Z,1.00
2022-07-28T19:23:05.895Z,1.00
2022-07-28T19:25:32.871Z,1.00
2022-07-28T19:27:59.453Z,1.00
2022-07-28T19:30:26.091Z,1.00
2022-07-28T19:32:52.686Z,1.00
2022-07-28T19:35:19.307Z,1.00
2022-07-28T19:37:45.934Z,1.00
2022-07-28T19:40:13.318Z,1.00
2022-07-28T19:42:39.917Z,1.00
2022-07-28T19:45:06.952Z,1.00
2022-07-28T19:47:36.627Z,1.00
2022-07-28T19:50:05.458Z,1.00
2022-07-28T19:52:32.146Z,1.00
2022-07-28T19:54:58.750Z,1.00
2022-07-28T19:57:26.693Z,1.00
2022-07-28T19:59:53.302Z,1.00
2022-07-28T20:02:19.975Z,1.00
2022-07-28T20:04:46.632Z,1.00
2022-07-28T20:07:13.205Z,1.00
2022-07-28T20:09:39.817Z,1.00
2022-07-28T20:12:07.826Z,1.00
2022-07-28T20:14:36.113Z,1.00
2022-07-28T20:17:02.910Z,1.00
2022-07-28T20:19:30.130Z,1.00
2022-07-28T20:21:57.212Z,1.00
2022-07-28T20:24:24.018Z,1.00
2022-07-28T20:26:50.732Z,1.00
2022-07-28T20:29:17.404Z,1.00
2022-07-28T20:31:44.023Z,1.00
2022-07-28T20:34:12.994Z,1.00
2022-07-28T20:36:39.750Z,1.00
2022-07-28T20:39:27.452Z,1.00
2022-07-28T20:41:52.956Z,1.00
2022-07-28T20:44:28.755Z,1.00
2022-07-28T20:46:58.386Z,1.00
2022-07-28T20:49:25.093Z,1.00
2022-07-28T20:51:51.751Z,1.00
2022-07-28T20:54:18.810Z,1.00
2022-07-28T20:56:45.530Z,1.00
2022-07-28T20:59:12.148Z,1.00
2022-07-28T21:01:39.330Z,1.00
2022-07-28T21:04:06.481Z,1.00
2022-07-28T21:06:37.909Z,1.00
2022-07-28T21:09:05.483Z,1.00
2022-07-28T21:11:34.719Z,1.00
2022-07-28T21:14:01.919Z,1.00
2022-07-28T21:16:28.611Z,1.00
2022-07-28T21:18:55.286Z,1.00
2022-07-28T21:21:22.171Z,1.00
2022-07-28T21:23:49.451Z,1.00
2022-07-28T21:26:16.457Z,1.00
2022-07-28T21:29:01.768Z,1.00
2022-07-28T21:31:28.417Z,1.00
2022-07-28T21:33:55.038Z,1.00
2022-07-28T21:36:21.648Z,1.00
2022-07-28T21:38:48.274Z,1.00
2022-07-28T21:41:14.889Z,1.00
2022-07-28T21:43:41.462Z,1.00
2022-07-28T21:46:08.143Z,1.00
2022-07-28T21:48:34.871Z,1.00
2022-07-28T21:51:01.464Z,1.00
2022-07-28T21:53:28.028Z,1.00
2022-07-28T21:55:54.641Z,1.00
2022-07-28T21:58:21.417Z,1.00
2022-07-28T22:00:48.159Z,1.00
2022-07-28T22:03:14.788Z,1.00
2022-07-28T22:05:41.707Z,1.00
2022-07-28T22:08:09.322Z,1.00
2022-07-28T22:10:35.936Z,1.00
2022-07-28T22:13:02.529Z,1.00
2022-07-28T22:15:29.182Z,1.00
2022-07-28T22:17:55.781Z,1.00
2022-07-28T22:20:22.538Z,1.00
2022-07-28T22:22:49.340Z,1.00
2022-07-28T22:25:16.022Z,1.00
2022-07-28T22:27:42.672Z,1.00
2022-07-28T22:30:09.993Z,1.00
2022-07-28T22:32:36.614Z,1.00
2022-07-28T22:35:03.272Z,1.00
2022-07-28T22:37:29.857Z,1.00
2022-07-28T22:39:56.574Z,1.00
2022-07-28T22:42:23.138Z,1.00
2022-07-28T22:44:49.729Z,1.00
2022-07-28T22:47:16.812Z,1.00
2022-07-28T22:49:43.409Z,1.00
2022-07-28T22:52:10.015Z,1.00
2022-07-28T22:54:37.571Z,1.00
2022-07-28T22:57:04.152Z,1.00
2022-07-28T22:59:30.699Z,1.00
2022-07-28T23:02:02.310Z,1.00
2022-07-28T23:04:29.644Z,1.00
2022-07-28T23:06:56.206Z,1.00
2022-07-28T23:09:22.842Z,1.00
2022-07-28T23:11:55.660Z,1.00
2022-07-28T23:14:22.913Z,1.00
2022-07-28T23:16:49.519Z,1.00
2022-07-28T23:19:16.563Z,1.00
2022-07-28T23:21:43.180Z,1.00
2022-07-28T23:24:09.795Z,1.00
2022-07-28T23:26:36.433Z,1.00
2022-07-28T23:29:03.049Z,1.00
2022-07-28T23:31:29.918Z,1.00
2022-07-28T23:33:57.663Z,1.00
2022-07-28T23:36:26.638Z,1.00
2022-07-28T23:38:58.314Z,1.00
2022-07-28T23:41:25.685Z,1.00
2022-07-28T23:43:52.336Z,1.00
2022-07-28T23:46:18.978Z,1.00
2022-07-28T23:48:45.840Z,1.00
2022-07-28T23:51:13.953Z,1.00
2022-07-28T23:53:41.246Z,1.00
2022-07-28T23:56:08.323Z,1.00
2022-07-28T23:58:34.986Z,1.00
